Time;durP1;ratioP1;P1;durP2;ratioP2;P2;SDS_P1;SDS_P2;PMS_P1;PMS_P2;Temp;Humidity;BMP_temperature;BMP_pressure;BME280_temperature;BME280_humidity;BME280_pressure;Samples;Min_cycle;Max_cycle;Signal;HPM_P1;HPM_P2
2022/07/19 04:05:35;;;;;;;2.93;2.73;;;16.80;99.90;;;;;;5031332;28;20531;-61
2022/07/19 04:08:12;;;;;;;3.17;2.53;;;16.90;99.90;;;;;;5032439;28;20951;-62
2022/07/19 04:10:37;;;;;;;3.20;3.00;;;16.90;99.90;;;;;;5034105;28;20396;-62
2022/07/19 04:13:03;;;;;;;4.27;3.57;;;17.00;99.90;;;;;;5033488;28;20951;-62
2022/07/19 04:15:32;;;;;;;3.70;3.50;;;16.90;99.90;;;;;;5010895;28;20196;-61
2022/07/19 04:17:58;;;;;;;3.63;3.33;;;17.00;99.90;;;;;;5028374;28;20213;-62
2022/07/19 04:20:24;;;;;;;2.70;2.60;;;17.00;99.90;;;;;;5032470;28;20409;-61
2022/07/19 04:22:50;;;;;;;3.40;3.20;;;17.00;99.90;;;;;;5064745;28;20397;-62
2022/07/19 04:25:20;;;;;;;4.30;4.00;;;17.00;99.90;;;;;;5046334;28;20445;-63
2022/07/19 04:27:47;;;;;;;4.60;3.60;;;17.10;99.90;;;;;;5031569;28;20677;-62
2022/07/19 04:30:13;;;;;;;3.33;3.13;;;17.10;99.90;;;;;;5031516;28;20425;-64
2022/07/19 04:32:38;;;;;;;4.60;4.07;;;17.20;99.90;;;;;;5030516;28;20453;-64
2022/07/19 04:35:06;;;;;;;4.40;4.00;;;17.30;99.90;;;;;;5030379;28;20213;-62
2022/07/19 04:37:32;;;;;;;6.67;4.00;;;17.40;99.90;;;;;;5036040;28;20179;-62
2022/07/19 04:39:59;;;;;;;6.07;3.87;;;17.60;99.90;;;;;;5034066;28;20457;-61
2022/07/19 04:42:24;;;;;;;3.97;3.60;;;17.70;99.90;;;;;;5045030;28;20420;-63
2022/07/19 04:44:50;;;;;;;3.90;3.70;;;17.80;99.90;;;;;;5038806;28;20452;-62
2022/07/19 04:47:15;;;;;;;3.67;3.47;;;17.90;99.90;;;;;;5051291;28;20172;-62
2022/07/19 04:49:41;;;;;;;4.60;4.20;;;18.10;99.90;;;;;;5050950;28;20180;-63
2022/07/19 04:52:07;;;;;;;6.50;3.77;;;18.20;99.90;;;;;;5033973;28;20194;-63
2022/07/19 04:54:32;;;;;;;3.80;3.50;;;18.50;99.90;;;;;;5050203;28;20225;-64
2022/07/19 04:56:58;;;;;;;4.63;4.17;;;18.80;99.90;;;;;;5036903;28;20267;-63
2022/07/19 04:59:24;;;;;;;5.43;3.50;;;19.00;99.90;;;;;;5031947;28;20422;-64
2022/07/19 05:01:49;;;;;;;5.37;4.47;;;19.20;99.90;;;;;;5033549;28;20229;-64
2022/07/19 05:04:15;;;;;;;4.90;3.83;;;19.50;99.90;;;;;;5032766;28;20186;-64
2022/07/19 05:06:42;;;;;;;3.67;3.37;;;19.80;99.40;;;;;;5018658;28;20191;-62
2022/07/19 05:09:08;;;;;;;4.20;3.90;;;20.10;98.80;;;;;;5013592;28;20209;-62
2022/07/19 05:11:34;;;;;;;3.93;3.63;;;20.30;98.00;;;;;;5017299;28;20431;-63
2022/07/19 05:13:59;;;;;;;3.80;3.50;;;20.40;97.50;;;;;;5016535;28;20210;-63
2022/07/19 05:16:25;;;;;;;4.17;3.87;;;20.50;96.90;;;;;;5018029;28;20689;-62
2022/07/19 05:18:51;;;;;;;4.60;4.20;;;20.60;96.90;;;;;;5018924;28;20179;-64
2022/07/19 05:21:16;;;;;;;4.33;4.03;;;20.60;96.70;;;;;;5036524;28;20178;-62
2022/07/19 05:23:42;;;;;;;8.50;5.67;;;20.60;96.60;;;;;;5035119;28;20197;-61
2022/07/19 05:26:07;;;;;;;7.77;5.83;;;20.70;96.30;;;;;;5036666;28;20177;-62
2022/07/19 05:28:33;;;;;;;5.70;5.03;;;20.80;95.90;;;;;;5036705;28;20178;-61
2022/07/19 05:30:59;;;;;;;4.80;4.50;;;20.90;95.00;;;;;;5036608;28;20186;-62
2022/07/19 05:33:26;;;;;;;7.80;4.30;;;20.90;94.90;;;;;;5035406;28;20213;-61
2022/07/19 05:35:52;;;;;;;4.60;4.30;;;20.90;94.60;;;;;;5016699;28;20175;-63
2022/07/19 05:38:17;;;;;;;6.30;4.37;;;20.90;94.70;;;;;;5016949;28;20713;-62
2022/07/19 05:40:43;;;;;;;5.10;3.60;;;20.90;95.10;;;;;;5016641;28;20170;-64
2022/07/19 05:43:08;;;;;;;4.57;4.17;;;20.80;95.00;;;;;;5016188;28;20198;-63
2022/07/19 05:45:34;;;;;;;4.23;3.83;;;20.80;95.30;;;;;;5016694;28;20269;-62
2022/07/19 05:48:00;;;;;;;4.50;3.83;;;20.70;95.50;;;;;;5024434;28;20576;-63
2022/07/19 05:50:25;;;;;;;4.17;3.77;;;20.70;95.30;;;;;;5036088;28;20258;-62
2022/07/19 05:52:51;;;;;;;5.13;4.47;;;20.80;95.10;;;;;;5035752;28;20308;-65
2022/07/19 05:55:16;;;;;;;3.83;3.53;;;20.90;95.20;;;;;;5036142;28;20248;-63
2022/07/19 05:57:42;;;;;;;6.30;3.87;;;21.00;95.00;;;;;;5035977;28;20193;-62
2022/07/19 06:00:09;;;;;;;4.33;3.93;;;21.20;95.10;;;;;;5025204;28;20576;-62
2022/07/19 06:02:34;;;;;;;11.50;8.47;;;21.30;94.80;;;;;;5034425;28;20178;-65
2022/07/19 06:05:00;;;;;;;6.33;4.43;;;21.40;94.50;;;;;;5032544;28;20983;-63
2022/07/19 06:07:26;;;;;;;4.37;3.97;;;21.60;94.10;;;;;;5020047;28;20265;-65
2022/07/19 06:09:51;;;;;;;4.43;3.97;;;21.70;93.60;;;;;;5030160;28;20653;-64
2022/07/19 06:12:17;;;;;;;3.13;2.93;;;21.90;93.00;;;;;;5026025;28;20561;-64
2022/07/19 06:14:43;;;;;;;3.50;3.20;;;22.00;91.50;;;;;;5021978;28;20240;-63
2022/07/19 06:17:08;;;;;;;3.40;3.13;;;22.20;91.40;;;;;;5030011;28;20677;-63
2022/07/19 06:19:34;;;;;;;3.87;3.57;;;22.40;91.30;;;;;;5019944;28;20230;-69
2022/07/19 06:21:59;;;;;;;3.60;3.30;;;22.50;90.60;;;;;;5014789;28;20187;-64
2022/07/19 06:24:25;;;;;;;4.33;3.30;;;22.70;89.90;;;;;;5016638;28;20219;-63
2022/07/19 06:26:51;;;;;;;2.93;2.80;;;22.80;86.50;;;;;;5029314;28;20665;-63
2022/07/19 06:29:16;;;;;;;7.40;3.03;;;22.90;87.80;;;;;;5026843;28;20188;-65
2022/07/19 06:31:42;;;;;;;3.57;3.37;;;23.00;87.70;;;;;;5030841;28;20183;-63
2022/07/19 06:34:07;;;;;;;3.30;3.10;;;23.10;86.30;;;;;;5035090;28;20287;-63
2022/07/19 06:36:33;;;;;;;13.10;3.20;;;23.20;85.10;;;;;;5035055;28;20264;-63
2022/07/19 06:38:59;;;;;;;2.77;2.57;;;23.40;83.30;;;;;;5029559;28;20263;-63
2022/07/19 06:41:24;;;;;;;5.50;3.37;;;23.40;82.70;;;;;;5020787;28;20177;-62
2022/07/19 06:43:50;;;;;;;6.77;3.07;;;23.50;83.60;;;;;;5015112;28;20681;-62
2022/07/19 06:46:15;;;;;;;4.73;3.07;;;23.50;83.80;;;;;;5032479;28;20582;-64
2022/07/19 06:48:41;;;;;;;3.30;3.00;;;23.70;83.70;;;;;;5022103;28;20174;-63
2022/07/19 06:51:07;;;;;;;3.37;3.07;;;23.90;82.60;;;;;;5035659;28;20197;-62
2022/07/19 06:53:35;;;;;;;2.80;2.67;;;24.10;80.80;;;;;;5035367;28;20599;-63
2022/07/19 06:56:01;;;;;;;4.00;3.10;;;24.20;81.10;;;;;;5023413;28;20491;-62
2022/07/19 06:58:29;;;;;;;4.00;3.50;;;24.30;81.40;;;;;;5016122;28;20391;-63
2022/07/19 07:00:55;;;;;;;8.17;3.40;;;24.40;80.40;;;;;;5028717;28;20285;-64
2022/07/19 07:03:20;;;;;;;3.20;2.90;;;24.60;80.00;;;;;;5017308;28;20773;-62
2022/07/19 07:05:46;;;;;;;2.90;2.70;;;24.80;79.30;;;;;;5015356;28;20206;-64
2022/07/19 07:08:12;;;;;;;2.93;2.73;;;25.10;78.80;;;;;;5016447;28;20182;-62
2022/07/19 07:10:39;;;;;;;6.13;5.03;;;25.30;78.40;;;;;;5018022;28;20183;-64
2022/07/19 07:13:06;;;;;;;4.83;4.43;;;25.60;78.10;;;;;;5014907;28;20539;-64
2022/07/19 07:15:31;;;;;;;3.27;2.97;;;25.80;77.30;;;;;;5015013;28;20942;-64
2022/07/19 07:17:57;;;;;;;3.30;3.00;;;26.00;74.00;;;;;;5015489;28;20410;-64
2022/07/19 07:20:23;;;;;;;11.73;3.20;;;26.20;72.20;;;;;;5034939;28;20174;-63
2022/07/19 07:22:49;;;;;;;2.30;2.20;;;26.30;71.50;;;;;;5029584;28;20933;-64
2022/07/19 07:25:15;;;;;;;2.37;2.27;;;26.40;71.40;;;;;;5028437;28;20685;-64
2022/07/19 07:27:41;;;;;;;3.03;2.83;;;26.50;70.90;;;;;;5033830;28;20403;-63
2022/07/19 07:30:07;;;;;;;3.23;3.03;;;26.50;71.70;;;;;;5029759;28;20189;-61
2022/07/19 07:32:33;;;;;;;2.77;2.57;;;26.70;70.60;;;;;;5012972;28;20249;-63
2022/07/19 07:34:58;;;;;;;3.50;3.20;;;27.00;70.50;;;;;;5014316;28;20450;-63
2022/07/19 07:37:26;;;;;;;3.13;2.93;;;27.50;70.30;;;;;;5015684;28;20178;-63
2022/07/19 07:39:52;;;;;;;2.73;2.53;;;28.00;67.80;;;;;;5021749;28;20194;-63
2022/07/19 07:42:17;;;;;;;3.03;2.70;;;28.80;66.80;;;;;;5027311;28;20755;-64
2022/07/19 07:44:43;;;;;;;3.43;2.80;;;29.90;62.20;;;;;;5032559;28;20251;-63
2022/07/19 07:47:09;;;;;;;2.63;2.43;;;31.20;58.80;;;;;;5015814;28;20186;-65
2022/07/19 07:49:35;;;;;;;2.57;2.47;;;32.50;55.40;;;;;;5033488;28;20194;-65
2022/07/19 07:52:01;;;;;;;2.20;2.10;;;33.70;52.70;;;;;;5028233;28;20179;-63
2022/07/19 07:54:27;;;;;;;3.00;2.80;;;34.80;51.80;;;;;;5013506;28;20483;-64
2022/07/19 07:56:52;;;;;;;2.60;2.50;;;36.10;49.10;;;;;;5029820;28;20174;-63
2022/07/19 07:59:18;;;;;;;2.50;2.40;;;37.30;45.90;;;;;;5032915;28;20203;-63
2022/07/19 08:01:44;;;;;;;2.53;2.40;;;38.20;44.90;;;;;;5032139;28;20182;-63
2022/07/19 08:04:10;;;;;;;2.47;2.27;;;39.10;43.80;;;;;;5019966;28;20698;-63
2022/07/19 08:06:36;;;;;;;2.47;2.37;;;40.20;42.20;;;;;;5026422;28;20246;-64
2022/07/19 08:09:03;;;;;;;2.33;2.23;;;41.00;41.00;;;;;;5033843;28;20405;-61
2022/07/19 08:11:30;;;;;;;2.33;2.23;;;41.50;39.30;;;;;;5033456;28;20228;-62
2022/07/19 08:13:55;;;;;;;2.83;2.63;;;42.00;38.90;;;;;;5032942;28;20549;-64
2022/07/19 08:16:21;;;;;;;2.93;2.80;;;42.50;37.70;;;;;;5031715;28;20512;-64
2022/07/19 08:18:47;;;;;;;3.00;2.90;;;42.90;36.70;;;;;;5032820;28;20228;-64
2022/07/19 08:21:13;;;;;;;3.00;2.80;;;42.90;36.30;;;;;;5033135;28;20181;-63
2022/07/19 08:23:41;;;;;;;2.73;2.53;;;42.90;36.40;;;;;;5032617;28;20202;-62
2022/07/19 08:26:07;;;;;;;3.50;3.17;;;43.10;35.80;;;;;;5033451;28;20507;-64
2022/07/19 08:28:32;;;;;;;3.07;2.87;;;43.20;35.30;;;;;;5033366;28;20508;-62
2022/07/19 08:30:58;;;;;;;2.97;2.80;;;43.30;34.80;;;;;;5014657;28;20193;-63
2022/07/19 08:33:24;;;;;;;2.60;2.50;;;43.50;35.10;;;;;;5013201;28;20716;-63
2022/07/19 08:35:49;;;;;;;3.07;2.97;;;43.70;34.50;;;;;;5013643;28;20171;-64
2022/07/19 08:38:15;;;;;;;2.97;2.77;;;43.80;33.90;;;;;;5014116;28;20175;-64
2022/07/19 08:40:42;;;;;;;3.07;2.97;;;43.80;33.50;;;;;;5013786;28;20185;-62
2022/07/19 08:43:09;;;;;;;2.80;2.70;;;43.80;33.20;;;;;;5013330;28;20182;-63
2022/07/19 08:45:37;;;;;;;3.73;3.53;;;43.70;33.20;;;;;;5013244;28;20478;-63
2022/07/19 08:48:06;;;;;;;2.77;2.67;;;43.70;33.30;;;;;;5013420;28;20409;-63
2022/07/19 08:50:42;;;;;;;2.30;2.20;;;43.80;32.10;;;;;;5013475;28;20414;-62
2022/07/19 08:53:08;;;;;;;2.77;2.57;;;43.60;30.60;;;;;;5011641;28;20540;-63
2022/07/19 08:55:33;;;;;;;2.50;2.40;;;42.60;31.20;;;;;;5013379;28;20965;-63
2022/07/19 08:58:02;;;;;;;2.73;2.53;;;42.30;31.80;;;;;;5018714;28;20261;-65
2022/07/19 09:00:29;;;;;;;2.77;2.57;;;42.30;31.70;;;;;;5033270;28;20551;-63
2022/07/19 09:03:01;;;;;;;2.70;2.60;;;42.20;31.60;;;;;;5032801;28;20424;-64
2022/07/19 09:05:27;;;;;;;2.33;2.23;;;42.20;31.70;;;;;;5031286;28;20960;-65
2022/07/19 09:08:09;;;;;;;2.60;2.50;;;42.40;31.80;;;;;;5033084;28;20516;-65
2022/07/19 09:13:30;;;;;;;2.40;2.30;;;42.50;32.10;;;;;;5032619;28;20451;-66
2022/07/19 09:15:56;;;;;;;2.83;2.60;;;42.70;31.90;;;;;;5033046;28;20413;-63
2022/07/19 09:18:32;;;;;;;2.87;2.73;;;43.00;31.20;;;;;;5029903;28;20171;-63
2022/07/19 09:21:04;;;;;;;2.57;2.47;;;43.00;31.50;;;;;;5013625;28;20170;-63
2022/07/19 09:23:30;;;;;;;2.70;2.60;;;42.90;31.10;;;;;;5012768;28;20434;-63
2022/07/19 09:25:58;;;;;;;3.30;3.10;;;42.80;31.10;;;;;;5013018;28;20414;-63
2022/07/19 09:28:26;;;;;;;2.60;2.50;;;42.90;30.90;;;;;;5013151;28;20437;-63
2022/07/19 09:30:54;;;;;;;2.67;2.47;;;42.60;30.80;;;;;;5013151;28;20398;-62
2022/07/19 09:33:31;;;;;;;2.70;2.60;;;42.50;30.60;;;;;;5016914;28;20470;-63
2022/07/19 09:36:02;;;;;;;2.67;2.50;;;42.50;30.30;;;;;;5032963;28;20415;-63
2022/07/19 09:38:36;;;;;;;2.50;2.40;;;43.00;30.00;;;;;;5032593;28;20405;-62
2022/07/19 09:41:11;;;;;;;2.70;2.60;;;43.20;30.10;;;;;;5031121;28;20509;-63
2022/07/19 09:43:56;;;;;;;3.10;2.90;;;43.50;29.80;;;;;;5032520;28;20428;-65
2022/07/19 09:46:37;;;;;;;2.83;2.63;;;43.70;29.70;;;;;;5028048;28;20417;-64
2022/07/19 09:49:14;;;;;;;3.00;2.80;;;43.70;29.90;;;;;;5012883;28;20795;-69
2022/07/19 09:51:45;;;;;;;3.00;2.80;;;43.70;29.80;;;;;;5013378;28;20443;-68
2022/07/19 09:54:13;;;;;;;2.63;2.53;;;43.60;29.50;;;;;;5012822;28;20900;-70
2022/07/19 09:56:42;;;;;;;2.70;2.50;;;43.30;29.50;;;;;;5014681;28;20821;-67
2022/07/19 09:59:08;;;;;;;3.93;2.90;;;43.10;30.00;;;;;;5022957;28;20424;-67
2022/07/19 10:01:35;;;;;;;2.87;2.73;;;43.30;29.90;;;;;;5036099;28;20401;-67
2022/07/19 10:04:13;;;;;;;2.80;2.70;;;43.40;29.80;;;;;;5035658;28;20654;-66
2022/07/19 10:06:39;;;;;;;3.20;3.10;;;43.60;29.70;;;;;;5035996;28;20439;-67
2022/07/19 10:09:08;;;;;;;5.60;2.80;;;43.60;29.50;;;;;;5035684;28;20784;-66
2022/07/19 10:11:34;;;;;;;3.03;2.93;;;43.80;29.20;;;;;;5035964;28;20405;-68
2022/07/19 10:14:00;;;;;;;3.20;3.00;;;44.00;29.20;;;;;;5035331;28;20496;-67
2022/07/19 10:16:32;;;;;;;3.10;3.00;;;44.10;29.20;;;;;;5035736;28;20417;-69
2022/07/19 10:19:27;;;;;;;2.73;2.63;;;44.10;29.60;;;;;;5036229;28;20393;-72
2022/07/19 10:21:54;;;;;;;2.80;2.70;;;44.00;29.40;;;;;;5034977;28;20449;-67
2022/07/19 10:24:54;;;;;;;3.00;2.80;;;43.80;29.20;;;;;;5035252;28;20428;-73
2022/07/19 10:27:39;;;;;;;3.17;3.00;;;43.70;29.30;;;;;;5035700;28;20435;-68
2022/07/19 10:30:10;;;;;;;3.43;3.13;;;43.50;29.00;;;;;;5035553;28;20433;-67
2022/07/19 10:32:45;;;;;;;2.97;2.77;;;43.40;29.50;;;;;;5035166;28;20556;-68
2022/07/19 10:35:30;;;;;;;2.80;2.60;;;43.00;29.40;;;;;;5035381;28;20424;-66
2022/07/19 10:38:01;;;;;;;3.10;2.90;;;42.80;29.50;;;;;;5017925;28;20572;-69
2022/07/19 10:40:45;;;;;;;2.80;2.70;;;42.10;29.90;;;;;;5015471;28;20932;-70
2022/07/19 10:43:20;;;;;;;3.53;3.33;;;41.30;30.30;;;;;;5023690;28;20486;-67
2022/07/19 10:46:04;;;;;;;2.63;2.50;;;40.90;30.70;;;;;;5021799;28;20499;-66
2022/07/19 10:48:47;;;;;;;2.80;2.60;;;40.70;31.20;;;;;;5019995;28;21039;-65
2022/07/19 10:51:33;;;;;;;3.70;3.37;;;40.80;31.30;;;;;;5029739;28;20425;-66
2022/07/19 10:54:06;;;;;;;2.90;2.70;;;41.00;31.40;;;;;;5034302;28;20483;-66
2022/07/19 10:56:33;;;;;;;4.87;2.70;;;40.80;30.80;;;;;;5015272;28;20421;-65
2022/07/19 10:59:11;;;;;;;3.17;2.97;;;40.20;31.90;;;;;;5024961;28;20432;-64
2022/07/19 11:01:38;;;;;;;3.10;2.90;;;40.00;31.50;;;;;;5029199;28;20410;-65
2022/07/19 11:04:28;;;;;;;2.83;2.60;;;39.80;31.80;;;;;;5020443;28;20531;-65
2022/07/19 11:07:20;;;;;;;3.03;2.83;;;39.70;31.30;;;;;;5042682;28;20474;-63
2022/07/19 11:09:56;;;;;;;3.67;2.80;;;39.30;32.20;;;;;;5034843;28;20913;-64
2022/07/19 11:12:28;;;;;;;2.87;2.60;;;38.90;32.60;;;;;;5051181;28;20451;-64
2022/07/19 11:14:55;;;;;;;3.00;2.80;;;38.50;32.30;;;;;;5054462;28;20416;-64
2022/07/19 11:17:21;;;;;;;2.40;2.30;;;38.30;32.50;;;;;;5054622;28;20443;-64
2022/07/19 11:20:04;;;;;;;2.83;2.63;;;37.90;33.10;;;;;;5037253;28;20461;-64
2022/07/19 11:22:35;;;;;;;2.80;2.60;;;37.40;33.40;;;;;;5034658;28;20197;-64
2022/07/19 11:25:03;;;;;;;2.40;2.20;;;36.60;34.10;;;;;;5054323;28;20482;-63
2022/07/19 11:27:30;;;;;;;2.60;2.30;;;36.00;34.40;;;;;;5054687;28;20813;-62
2022/07/19 11:29:58;;;;;;;2.93;2.73;;;35.60;35.00;;;;;;5054354;28;20375;-62
2022/07/19 11:32:24;;;;;;;2.63;2.43;;;35.10;35.30;;;;;;5053966;28;20447;-62
2022/07/19 11:35:04;;;;;;;2.90;2.70;;;34.60;36.10;;;;;;5034497;28;20740;-62
2022/07/19 11:37:34;;;;;;;3.00;2.80;;;34.20;36.40;;;;;;5034309;28;20437;-65
2022/07/19 11:39:59;;;;;;;2.67;2.47;;;33.90;37.00;;;;;;5015212;28;20384;-64
2022/07/19 11:42:45;;;;;;;2.83;2.40;;;33.80;36.60;;;;;;5035318;28;20395;-62
2022/07/19 11:45:29;;;;;;;2.40;2.20;;;33.60;37.20;;;;;;5033079;28;20194;-62
2022/07/19 11:47:56;;;;;;;2.73;2.50;;;33.60;37.10;;;;;;5031717;28;20391;-63
2022/07/19 11:50:24;;;;;;;2.90;2.60;;;33.50;37.30;;;;;;5034425;28;20448;-63
2022/07/19 11:52:59;;;;;;;4.60;3.37;;;33.60;37.30;;;;;;5033627;28;20435;-63
2022/07/19 11:55:28;;;;;;;2.97;2.77;;;33.50;37.30;;;;;;5034084;28;20429;-64
2022/07/19 11:57:56;;;;;;;2.30;2.10;;;33.50;37.10;;;;;;5030576;28;20424;-63
2022/07/19 12:00:21;;;;;;;2.63;2.43;;;33.50;37.60;;;;;;5013089;28;20547;-63
2022/07/19 12:02:50;;;;;;;3.70;2.57;;;33.70;38.20;;;;;;5026812;28;20860;-63
2022/07/19 12:05:16;;;;;;;2.63;2.40;;;33.70;37.50;;;;;;5020774;28;20214;-63
2022/07/19 12:07:50;;;;;;;2.60;2.13;;;33.70;37.80;;;;;;5033854;28;20390;-62
2022/07/19 12:10:44;;;;;;;2.23;2.03;;;33.70;37.30;;;;;;5034065;28;20196;-61
2022/07/19 12:13:15;;;;;;;2.27;2.17;;;33.80;37.10;;;;;;5013676;28;21003;-61
2022/07/19 12:15:53;;;;;;;3.40;2.33;;;33.80;36.90;;;;;;5020001;28;20419;-63
2022/07/19 12:18:21;;;;;;;3.93;3.10;;;33.90;37.00;;;;;;5033581;28;20379;-61
2022/07/19 12:21:17;;;;;;;3.10;2.70;;;33.80;37.10;;;;;;5019717;28;20487;-61
2022/07/19 12:23:43;;;;;;;2.70;2.50;;;33.80;37.70;;;;;;5013524;28;20442;-62
2022/07/19 12:26:09;;;;;;;2.93;2.63;;;33.80;38.30;;;;;;5013840;28;20391;-63
2022/07/19 12:28:35;;;;;;;2.50;2.30;;;33.80;38.00;;;;;;5027995;28;20553;-61
2022/07/19 12:31:04;;;;;;;2.70;2.50;;;33.80;37.80;;;;;;5042831;28;20428;-62
2022/07/19 12:33:30;;;;;;;2.87;2.67;;;33.80;37.60;;;;;;5052768;28;20692;-61
2022/07/19 12:35:56;;;;;;;7.57;3.00;;;33.80;38.10;;;;;;5052547;28;20389;-62
2022/07/19 12:38:31;;;;;;;3.10;2.87;;;33.90;38.10;;;;;;5044405;28;20174;-60
2022/07/19 12:41:08;;;;;;;5.30;3.20;;;34.00;38.60;;;;;;5033611;28;20177;-61
2022/07/19 12:43:34;;;;;;;2.80;2.60;;;34.10;38.00;;;;;;5027578;28;20449;-60
2022/07/19 12:46:01;;;;;;;3.67;2.90;;;34.20;37.80;;;;;;5013637;28;20405;-62
2022/07/19 12:48:27;;;;;;;3.40;3.00;;;34.20;37.70;;;;;;5013382;28;20899;-62
2022/07/19 12:50:54;;;;;;;6.80;2.80;;;34.20;37.60;;;;;;5013263;28;20401;-61
2022/07/19 12:53:20;;;;;;;3.30;3.10;;;34.10;37.60;;;;;;5022451;28;20853;-61
2022/07/19 12:55:46;;;;;;;3.40;3.20;;;34.10;37.70;;;;;;5030923;28;20400;-63
2022/07/19 12:59:38;;;;;;;3.03;2.40;;;34.10;38.50;;;;;;5031033;28;20470;-62
2022/07/19 13:01:00;;;;;;;2.83;2.63;;;34.00;37.80;;;;;;5021759;28;20471;-62
2022/07/19 13:03:26;;;;;;;2.90;2.73;;;34.00;37.90;;;;;;5010950;28;20412;-62
2022/07/19 13:05:52;;;;;;;3.70;2.97;;;33.90;38.10;;;;;;5011272;28;20275;-64
2022/07/19 13:08:17;;;;;;;3.00;2.80;;;33.90;39.00;;;;;;5024798;28;20190;-63
2022/07/19 13:10:43;;;;;;;4.97;3.10;;;33.90;38.40;;;;;;5013542;28;20627;-64
2022/07/19 13:13:10;;;;;;;2.90;2.70;;;34.00;38.90;;;;;;5012804;28;20199;-62
2022/07/19 13:15:35;;;;;;;3.37;3.10;;;34.10;38.80;;;;;;5013385;28;20179;-64
2022/07/19 13:18:01;;;;;;;10.83;3.57;;;34.10;38.30;;;;;;5013194;28;20414;-62
2022/07/19 13:20:28;;;;;;;4.37;3.07;;;34.10;38.60;;;;;;5023944;28;20182;-63
2022/07/19 13:22:54;;;;;;;2.70;2.60;;;34.10;38.90;;;;;;5032442;28;20182;-61
2022/07/19 13:25:20;;;;;;;3.00;2.80;;;34.10;39.30;;;;;;5032250;28;20445;-61
2022/07/19 13:27:46;;;;;;;3.30;3.10;;;34.20;38.50;;;;;;5032574;28;20441;-61
2022/07/19 13:30:12;;;;;;;3.50;3.20;;;34.20;37.60;;;;;;5025010;28;20457;-61
2022/07/19 13:32:39;;;;;;;3.60;3.20;;;34.20;38.30;;;;;;5016803;28;20229;-61
2022/07/19 13:35:05;;;;;;;3.10;2.90;;;34.30;38.60;;;;;;5015703;28;20197;-61
2022/07/19 13:37:31;;;;;;;2.97;2.77;;;34.20;38.20;;;;;;5016303;28;20396;-62
2022/07/19 13:39:57;;;;;;;3.00;2.80;;;34.20;38.50;;;;;;5016574;28;20504;-61
2022/07/19 13:42:23;;;;;;;4.67;2.80;;;34.20;38.90;;;;;;5016242;28;20203;-62
2022/07/19 13:44:49;;;;;;;2.87;2.67;;;34.30;38.50;;;;;;5015792;28;20665;-60
2022/07/19 13:47:14;;;;;;;4.93;2.90;;;34.30;38.20;;;;;;5014726;28;20179;-62
2022/07/19 13:49:40;;;;;;;3.00;2.60;;;34.40;38.00;;;;;;5014560;28;20508;-62
2022/07/19 13:52:06;;;;;;;2.97;2.67;;;34.40;37.30;;;;;;5018946;28;20190;-63
2022/07/19 13:54:31;;;;;;;7.60;3.50;;;34.40;37.70;;;;;;5034144;28;20738;-62
2022/07/19 13:56:58;;;;;;;4.30;2.67;;;34.40;37.60;;;;;;5034132;28;20249;-63
2022/07/19 13:59:23;;;;;;;3.23;2.97;;;34.40;38.00;;;;;;5034208;28;20170;-62
2022/07/19 14:01:49;;;;;;;4.20;2.90;;;34.40;37.30;;;;;;5036006;28;20439;-62
2022/07/19 14:04:15;;;;;;;3.20;3.00;;;34.40;37.90;;;;;;5035831;28;20198;-62
2022/07/19 14:06:41;;;;;;;5.93;2.87;;;34.50;37.70;;;;;;5023198;28;20198;-62
2022/07/19 14:09:06;;;;;;;3.47;3.17;;;34.50;37.60;;;;;;5016308;28;20175;-62
2022/07/19 14:11:32;;;;;;;3.00;2.80;;;34.50;37.30;;;;;;5016388;28;20567;-63
2022/07/19 14:13:58;;;;;;;4.10;3.23;;;34.60;37.60;;;;;;5015919;28;20218;-63
2022/07/19 14:16:23;;;;;;;3.40;3.10;;;34.60;37.70;;;;;;5016362;28;20175;-62
2022/07/19 14:18:49;;;;;;;3.53;3.23;;;34.60;37.70;;;;;;5016316;28;20171;-62
2022/07/19 14:21:15;;;;;;;3.03;2.83;;;34.60;37.50;;;;;;5027143;28;20178;-62
2022/07/19 14:23:41;;;;;;;3.50;2.83;;;34.70;37.10;;;;;;5035275;28;20218;-61
2022/07/19 14:26:06;;;;;;;3.50;2.77;;;34.60;36.80;;;;;;5035865;28;20260;-62
2022/07/19 14:28:32;;;;;;;3.30;3.00;;;34.70;37.10;;;;;;5035646;28;20444;-62
2022/07/19 14:30:57;;;;;;;4.63;3.00;;;34.70;37.60;;;;;;5035597;28;20285;-62
2022/07/19 14:33:23;;;;;;;2.60;2.40;;;34.70;37.20;;;;;;5035088;28;20244;-62
2022/07/19 14:35:49;;;;;;;4.00;3.70;;;34.70;37.70;;;;;;5016340;28;20211;-63
2022/07/19 14:38:15;;;;;;;4.47;3.60;;;34.70;37.90;;;;;;5015935;28;20206;-61
2022/07/19 14:40:40;;;;;;;3.07;2.80;;;34.60;37.70;;;;;;5016119;28;20387;-63
2022/07/19 14:43:07;;;;;;;2.80;2.50;;;34.60;37.60;;;;;;5024047;28;20193;-62
2022/07/19 14:45:32;;;;;;;2.70;2.50;;;34.60;37.70;;;;;;5035242;28;20223;-63
2022/07/19 14:47:58;;;;;;;5.13;3.73;;;34.50;37.80;;;;;;5035405;28;20384;-63
2022/07/19 14:50:24;;;;;;;3.83;3.10;;;34.50;38.10;;;;;;5017689;28;20207;-62
2022/07/19 14:52:50;;;;;;;6.67;2.77;;;34.60;36.70;;;;;;5014575;28;20219;-63
2022/07/19 14:55:15;;;;;;;5.73;2.80;;;34.70;36.10;;;;;;5014383;28;20222;-62
2022/07/19 14:57:41;;;;;;;2.90;2.73;;;34.70;35.90;;;;;;5015363;28;20194;-63
2022/07/19 15:00:11;;;;;;;4.37;3.13;;;34.70;35.90;;;;;;5015568;28;20163;-62
2022/07/19 15:02:40;;;;;;;2.90;2.70;;;34.70;36.50;;;;;;5020792;28;20173;-63
2022/07/19 15:05:07;;;;;;;3.37;2.50;;;34.70;37.20;;;;;;5034934;28;20471;-62
2022/07/19 15:07:33;;;;;;;5.70;2.80;;;34.70;37.20;;;;;;5035175;28;20518;-63
2022/07/19 15:09:58;;;;;;;3.20;3.00;;;34.70;37.10;;;;;;5033298;28;20474;-62
2022/07/19 15:12:24;;;;;;;2.83;2.60;;;34.60;37.70;;;;;;5034304;28;20178;-63
2022/07/19 15:14:50;;;;;;;4.17;2.50;;;34.70;37.10;;;;;;5034816;28;20194;-61
2022/07/19 15:17:16;;;;;;;3.03;2.80;;;34.70;36.90;;;;;;5035053;28;20181;-63
2022/07/19 15:19:42;;;;;;;2.80;2.50;;;34.70;36.70;;;;;;5034813;28;20319;-62
2022/07/19 15:22:08;;;;;;;2.80;2.50;;;34.70;37.30;;;;;;5034734;28;20388;-62
2022/07/19 15:24:34;;;;;;;3.10;2.90;;;34.70;37.00;;;;;;5019889;28;20207;-63
2022/07/19 15:26:59;;;;;;;3.37;2.87;;;34.60;36.50;;;;;;5015060;28;20443;-63
2022/07/19 15:29:25;;;;;;;2.97;2.67;;;34.60;36.50;;;;;;5014812;28;20167;-62
2022/07/19 15:31:51;;;;;;;3.73;2.83;;;34.60;36.40;;;;;;5014773;28;20185;-62
2022/07/19 15:34:16;;;;;;;2.93;2.73;;;34.60;36.90;;;;;;5014142;28;20203;-63
2022/07/19 15:36:42;;;;;;;3.03;2.73;;;34.60;36.60;;;;;;5014631;28;20178;-63
2022/07/19 15:39:08;;;;;;;2.90;2.70;;;34.50;37.00;;;;;;5026904;28;20178;-63
2022/07/19 15:41:34;;;;;;;3.20;2.40;;;34.50;37.10;;;;;;5034222;28;20210;-62
2022/07/19 15:44:00;;;;;;;2.50;2.40;;;34.50;36.30;;;;;;5033768;28;20940;-63
2022/07/19 15:46:31;;;;;;;2.90;2.70;;;34.60;36.50;;;;;;5034290;28;20388;-63
2022/07/19 15:49:02;;;;;;;2.87;2.60;;;34.60;36.40;;;;;;5033947;28;20420;-63
2022/07/19 15:51:29;;;;;;;3.50;2.43;;;34.60;36.60;;;;;;5031467;28;20424;-62
2022/07/19 15:53:56;;;;;;;3.00;2.70;;;34.50;36.30;;;;;;5027485;28;20895;-63
2022/07/19 15:56:22;;;;;;;2.90;2.70;;;34.50;36.40;;;;;;5014404;28;20431;-62
2022/07/19 15:58:48;;;;;;;2.70;2.50;;;34.50;35.40;;;;;;5013206;28;20740;-62
2022/07/19 16:01:13;;;;;;;2.33;2.13;;;34.50;35.70;;;;;;5014360;28;20255;-61
2022/07/19 16:03:40;;;;;;;2.60;2.40;;;34.50;35.90;;;;;;5013579;28;20678;-63
2022/07/19 16:06:06;;;;;;;5.50;2.50;;;34.50;36.00;;;;;;5014961;28;20198;-63
2022/07/19 16:08:31;;;;;;;2.70;2.60;;;34.50;35.80;;;;;;5033859;28;20391;-62
2022/07/19 16:10:57;;;;;;;2.80;2.57;;;34.40;36.30;;;;;;5033670;28;20170;-61
2022/07/19 16:13:23;;;;;;;2.90;2.70;;;34.40;36.40;;;;;;5033355;28;20206;-63
2022/07/19 16:15:48;;;;;;;2.70;2.50;;;34.40;35.80;;;;;;5033705;28;20574;-63
2022/07/19 16:18:14;;;;;;;2.80;2.50;;;34.40;35.90;;;;;;5033620;28;20220;-61
2022/07/19 16:20:39;;;;;;;4.73;2.40;;;34.40;35.90;;;;;;5025593;28;20167;-62
2022/07/19 16:23:05;;;;;;;4.87;3.30;;;34.30;35.60;;;;;;5013249;28;20194;-63
2022/07/19 16:25:31;;;;;;;3.53;3.33;;;34.30;35.80;;;;;;5014476;28;20191;-63
2022/07/19 16:27:56;;;;;;;2.50;2.30;;;34.30;35.50;;;;;;5013954;28;20722;-62
2022/07/19 16:30:22;;;;;;;2.50;2.30;;;34.30;35.60;;;;;;5014045;28;20647;-62
2022/07/19 16:32:48;;;;;;;2.43;2.23;;;34.20;35.90;;;;;;5013398;28;20195;-62
2022/07/19 16:35:13;;;;;;;3.87;2.67;;;34.20;35.90;;;;;;5025659;28;20236;-62
2022/07/19 16:37:40;;;;;;;2.87;2.47;;;34.20;36.30;;;;;;5033342;28;20166;-63
2022/07/19 16:40:07;;;;;;;2.77;2.47;;;34.20;36.00;;;;;;5033653;28;20193;-62
2022/07/19 16:42:33;;;;;;;3.63;2.53;;;34.20;36.00;;;;;;5029197;28;20396;-62
2022/07/19 16:45:00;;;;;;;2.77;2.63;;;34.20;36.20;;;;;;5013939;28;20508;-62
2022/07/19 16:47:25;;;;;;;4.00;2.37;;;34.20;36.50;;;;;;5013784;28;20183;-62
2022/07/19 16:49:51;;;;;;;3.37;3.17;;;34.20;36.20;;;;;;5015320;28;20390;-63
2022/07/19 16:52:16;;;;;;;7.23;2.77;;;34.10;36.10;;;;;;5034710;28;20284;-63
2022/07/19 16:54:42;;;;;;;2.23;2.13;;;34.00;36.10;;;;;;5033494;28;20197;-63
2022/07/19 16:57:09;;;;;;;3.13;2.93;;;34.00;36.10;;;;;;5033793;28;20166;-64